Terminal Aerodrome Forecast
Issued by NWS Louisville, KY

Home | Current Version | Previous Version | Graphics & Text | Print | Product List | Glossary On
Versions: 1 2 3 4 5 6 7 8 9 10 11 12 13 14 15
000
FTUS43 KLMK 261700
TAFSDF
TAF
KSDF 261720Z 2618/2724 19010KT P6SM SCT250
     FM262300 17005KT P6SM SCT250
     FM271000 17006KT P6SM BKN060
     FM271700 21007KT P6SM -RA OVC035=

USA.gov is the U.S. government's official web portal to all federal, state and local government web resources and services.